Time;durP1;ratioP1;P1;durP2;ratioP2;P2;SDS_P1;SDS_P2;PMS_P1;PMS_P2;Temp;Humidity;BMP_temperature;BMP_pressure;BME280_temperature;BME280_humidity;BME280_pressure;Samples;Min_cycle;Max_cycle;Signal;HPM_P1;HPM_P2
2022/08/14 00:01:24;;;;;;;;;;;21.00;53.80;;;;;;5089532;28;19912;-70
2022/08/14 00:03:49;;;;;;;;;;;21.00;53.80;;;;;;5089673;28;19954;-75
2022/08/14 00:06:15;;;;;;;;;;;21.00;53.80;;;;;;5071608;28;19916;-75
2022/08/14 00:08:40;;;;;;;;;;;21.00;53.80;;;;;;5088457;28;19924;-75
2022/08/14 00:11:06;;;;;;;;;;;21.00;53.70;;;;;;5089623;28;19915;-75
2022/08/14 00:13:32;;;;;;;;;;;21.00;53.80;;;;;;5089765;28;19999;-75
2022/08/14 00:15:58;;;;;;;;;;;21.00;53.80;;;;;;5088536;28;19915;-75
2022/08/14 00:18:25;;;;;;;;;;;21.00;53.70;;;;;;5088283;28;19912;-75
2022/08/14 00:20:51;;;;;;;;;;;21.00;53.70;;;;;;5089420;28;19987;-74
2022/08/14 00:23:17;;;;;;;;;;;21.00;53.70;;;;;;5088224;28;20598;-75
2022/08/14 00:25:53;;;;;;;;;;;20.90;53.70;;;;;;5087957;28;19914;-75
2022/08/14 00:28:20;;;;;;;;;;;21.00;53.80;;;;;;5088201;28;20011;-75
2022/08/14 00:30:46;;;;;;;;;;;21.00;53.80;;;;;;5089121;28;19919;-75
2022/08/14 00:33:12;;;;;;;;;;;21.00;53.90;;;;;;5087839;28;19912;-75
2022/08/14 00:35:37;;;;;;;;;;;21.00;53.80;;;;;;5087820;28;20427;-75
2022/08/14 00:38:03;;;;;;;;;;;21.00;53.80;;;;;;5087967;28;20019;-75
2022/08/14 00:40:28;;;;;;;;;;;21.00;53.80;;;;;;5088895;28;20384;-75
2022/08/14 00:42:54;;;;;;;;;;;21.00;53.80;;;;;;5087614;28;19923;-75
2022/08/14 00:45:19;;;;;;;;;;;21.00;53.80;;;;;;5087626;28;19912;-75
2022/08/14 00:47:46;;;;;;;;;;;21.00;53.90;;;;;;5089146;28;20018;-75
2022/08/14 00:50:13;;;;;;;;;;;20.90;53.90;;;;;;5088941;28;19912;-75
2022/08/14 00:52:39;;;;;;;;;;;20.90;53.90;;;;;;5087431;28;19919;-75
2022/08/14 00:55:06;;;;;;;;;;;20.90;53.90;;;;;;5088685;28;19917;-75
2022/08/14 00:57:33;;;;;;;;;;;20.90;54.00;;;;;;5089106;28;19908;-75
2022/08/14 00:59:59;;;;;;;;;;;20.90;53.90;;;;;;5088876;28;19908;-75
2022/08/14 01:02:25;;;;;;;;;;;20.80;53.90;;;;;;5087362;28;19934;-75
2022/08/14 01:04:52;;;;;;;;;;;20.80;54.00;;;;;;5088742;28;19952;-75
2022/08/14 01:07:19;;;;;;;;;;;20.70;53.90;;;;;;5089037;28;20330;-75
2022/08/14 01:09:55;;;;;;;;;;;20.70;53.90;;;;;;5087329;28;20396;-75
2022/08/14 01:12:22;;;;;;;;;;;20.70;53.90;;;;;;5088659;28;19916;-75
2022/08/14 01:14:51;;;;;;;;;;;20.70;53.90;;;;;;5087386;28;19907;-75
2022/08/14 01:17:17;;;;;;;;;;;20.70;54.00;;;;;;5088709;28;19989;-75
2022/08/14 01:22:27;;;;;;;;;;;20.60;54.00;;;;;;5088878;28;19919;-75
2022/08/14 01:24:52;;;;;;;;;;;20.60;54.10;;;;;;5088376;28;19916;-75
2022/08/14 01:27:20;;;;;;;;;;;20.50;54.10;;;;;;5088372;28;19912;-75
2022/08/14 01:29:47;;;;;;;;;;;20.50;54.00;;;;;;5070360;28;19916;-75
2022/08/14 01:32:13;;;;;;;;;;;20.40;54.00;;;;;;5086910;28;19912;-75
2022/08/14 01:34:38;;;;;;;;;;;20.40;54.00;;;;;;5069961;28;19918;-75
2022/08/14 01:37:04;;;;;;;;;;;20.40;54.10;;;;;;5086853;28;19965;-75
2022/08/14 01:39:30;;;;;;;;;;;20.40;54.10;;;;;;5086756;28;19920;-75
2022/08/14 01:41:59;;;;;;;;;;;20.40;54.10;;;;;;5086969;28;20268;-75
2022/08/14 01:44:28;;;;;;;;;;;20.40;54.10;;;;;;5086753;28;20013;-75
2022/08/14 01:46:56;;;;;;;;;;;20.30;54.10;;;;;;5088071;28;20379;-75
2022/08/14 01:49:22;;;;;;;;;;;20.30;54.20;;;;;;5087994;28;19912;-75
2022/08/14 01:51:53;;;;;;;;;;;20.30;54.20;;;;;;5087978;28;19923;-75
2022/08/14 01:54:22;;;;;;;;;;;20.30;54.70;;;;;;5088039;28;19915;-75
2022/08/14 01:56:54;;;;;;;;;;;20.30;54.20;;;;;;5088127;28;19908;-75
2022/08/14 01:59:22;;;;;;;;;;;20.20;54.10;;;;;;5087967;28;19919;-75
2022/08/14 02:01:50;;;;;;;;;;;20.20;54.20;;;;;;5086655;28;19919;-81
2022/08/14 02:04:16;;;;;;;;;;;20.20;54.20;;;;;;5087807;28;19915;-75
2022/08/14 02:06:43;;;;;;;;;;;20.20;54.20;;;;;;5087551;28;19912;-75
2022/08/14 02:09:08;;;;;;;;;;;20.10;54.20;;;;;;5087219;28;20334;-75
2022/08/14 02:11:35;;;;;;;;;;;20.10;54.20;;;;;;5087563;28;20014;-75
2022/08/14 02:14:03;;;;;;;;;;;20.10;54.30;;;;;;5087777;28;19912;-75
2022/08/14 02:16:32;;;;;;;;;;;19.90;54.30;;;;;;5087819;28;20011;-75
2022/08/14 02:18:59;;;;;;;;;;;19.90;54.40;;;;;;5087966;28;19915;-75
2022/08/14 02:21:26;;;;;;;;;;;19.80;54.40;;;;;;5087696;28;19915;-75
2022/08/14 02:23:53;;;;;;;;;;;19.90;54.40;;;;;;5087789;28;20367;-75
2022/08/14 02:26:23;;;;;;;;;;;19.90;54.30;;;;;;5087736;28;19913;-74
2022/08/14 02:28:50;;;;;;;;;;;19.80;54.30;;;;;;5087699;28;19915;-74
2022/08/14 02:31:15;;;;;;;;;;;19.80;54.40;;;;;;5087628;28;19930;-75
2022/08/14 02:33:41;;;;;;;;;;;19.80;54.40;;;;;;5087605;28;19916;-75
2022/08/14 02:36:08;;;;;;;;;;;19.80;54.40;;;;;;5087733;28;19909;-75
2022/08/14 02:38:34;;;;;;;;;;;19.80;54.40;;;;;;5086330;28;19988;-75
2022/08/14 02:41:00;;;;;;;;;;;19.80;54.30;;;;;;5087382;28;19928;-75
2022/08/14 02:43:29;;;;;;;;;;;19.80;54.30;;;;;;5087600;28;19965;-75
2022/08/14 02:45:55;;;;;;;;;;;19.70;54.20;;;;;;5087576;28;20507;-75
2022/08/14 02:48:21;;;;;;;;;;;19.60;54.30;;;;;;5087474;28;19958;-75
2022/08/14 02:50:46;;;;;;;;;;;19.50;54.40;;;;;;5087400;28;19955;-75
2022/08/14 02:53:12;;;;;;;;;;;19.50;54.70;;;;;;5069192;28;20330;-75
2022/08/14 02:55:40;;;;;;;;;;;19.40;54.60;;;;;;5087483;28;19923;-75
2022/08/14 02:58:06;;;;;;;;;;;19.40;54.60;;;;;;5086051;28;19923;-75
2022/08/14 03:00:33;;;;;;;;;;;19.40;54.70;;;;;;5087423;28;19912;-75
2022/08/14 03:03:01;;;;;;;;;;;19.40;54.80;;;;;;5087327;28;20298;-75
2022/08/14 03:05:29;;;;;;;;;;;19.40;54.80;;;;;;5069478;28;19962;-75
2022/08/14 03:08:05;;;;;;;;;;;19.40;54.80;;;;;;5087182;28;19908;-75
2022/08/14 03:10:31;;;;;;;;;;;19.40;54.80;;;;;;5085579;28;19912;-76
2022/08/14 03:12:57;;;;;;;;;;;19.40;54.80;;;;;;5087183;28;20271;-75
2022/08/14 03:15:23;;;;;;;;;;;19.40;54.80;;;;;;5087028;28;19912;-75
2022/08/14 03:17:51;;;;;;;;;;;19.40;54.70;;;;;;5087009;28;20509;-75
2022/08/14 03:20:17;;;;;;;;;;;19.40;54.60;;;;;;5088595;28;20292;-75
2022/08/14 03:22:43;;;;;;;;;;;19.40;54.50;;;;;;5089136;28;19913;-75
2022/08/14 03:25:10;;;;;;;;;;;19.40;54.50;;;;;;5090730;28;19908;-75
2022/08/14 03:27:36;;;;;;;;;;;19.40;54.60;;;;;;5090727;28;19915;-75
2022/08/14 03:30:03;;;;;;;;;;;19.30;54.50;;;;;;5090682;28;19912;-75
2022/08/14 03:32:30;;;;;;;;;;;19.30;54.60;;;;;;5090607;28;19920;-75
2022/08/14 03:34:55;;;;;;;;;;;19.30;54.60;;;;;;5089247;28;19961;-75
2022/08/14 03:37:21;;;;;;;;;;;19.30;54.50;;;;;;5090557;28;19916;-75
2022/08/14 03:39:46;;;;;;;;;;;19.20;54.50;;;;;;5088913;28;19920;-75
2022/08/14 03:42:12;;;;;;;;;;;19.20;54.50;;;;;;5089245;28;19912;-75
2022/08/14 03:44:39;;;;;;;;;;;19.20;54.50;;;;;;5090350;28;19923;-75
2022/08/14 03:47:05;;;;;;;;;;;19.20;54.50;;;;;;5089105;28;20387;-75
2022/08/14 03:49:30;;;;;;;;;;;19.20;54.50;;;;;;5072118;28;19958;-75
2022/08/14 03:51:57;;;;;;;;;;;19.10;54.40;;;;;;5088796;28;19961;-75
2022/08/14 03:54:23;;;;;;;;;;;19.10;54.50;;;;;;5090339;28;19965;-75
2022/08/14 03:56:48;;;;;;;;;;;19.00;54.40;;;;;;5090202;28;19912;-75
2022/08/14 03:59:14;;;;;;;;;;;19.00;54.50;;;;;;5088714;28;20276;-75
2022/08/14 04:01:40;;;;;;;;;;;19.00;54.60;;;;;;5088415;28;19912;-75
2022/08/14 04:04:06;;;;;;;;;;;19.00;54.50;;;;;;5088784;28;19916;-75
2022/08/14 04:06:35;;;;;;;;;;;18.90;54.50;;;;;;5071829;28;20288;-75
2022/08/14 04:09:02;;;;;;;;;;;19.00;54.50;;;;;;5089873;28;19914;-75
2022/08/14 04:11:28;;;;;;;;;;;18.90;55.00;;;;;;5088353;28;19915;-76
2022/08/14 04:13:54;;;;;;;;;;;18.90;54.50;;;;;;5089927;28;19932;-76
2022/08/14 04:16:21;;;;;;;;;;;18.90;54.50;;;;;;5089653;28;19916;-76
2022/08/14 04:18:49;;;;;;;;;;;18.90;54.50;;;;;;5088442;28;19908;-75
2022/08/14 04:21:16;;;;;;;;;;;18.80;54.50;;;;;;5089556;28;19908;-75
2022/08/14 04:23:42;;;;;;;;;;;18.80;54.60;;;;;;5089593;28;20413;-75
2022/08/14 04:26:09;;;;;;;;;;;18.80;54.70;;;;;;5088560;28;19912;-75
2022/08/14 04:28:35;;;;;;;;;;;18.70;54.60;;;;;;5089504;28;19912;-75
2022/08/14 04:31:01;;;;;;;;;;;18.70;54.60;;;;;;5087623;28;19940;-75
2022/08/14 04:33:27;;;;;;;;;;;18.70;54.70;;;;;;5089537;28;20269;-75
2022/08/14 04:35:53;;;;;;;;;;;18.60;54.70;;;;;;5088106;28;19955;-76
2022/08/14 04:43:47;;;;;;;;;;;18.50;54.90;;;;;;5089647;28;20318;-75
2022/08/14 04:46:14;;;;;;;;;;;18.40;54.90;;;;;;5089107;28;19920;-76
2022/08/14 04:48:40;;;;;;;;;;;18.40;55.00;;;;;;5089258;28;19914;-76
2022/08/14 04:51:07;;;;;;;;;;;18.50;55.00;;;;;;5088956;28;19912;-76
2022/08/14 04:53:33;;;;;;;;;;;18.50;54.90;;;;;;5087489;28;20340;-75
2022/08/14 04:55:59;;;;;;;;;;;18.50;54.80;;;;;;5087728;28;19916;-75
2022/08/14 04:58:27;;;;;;;;;;;18.50;54.80;;;;;;5087599;28;20326;-75
2022/08/14 05:00:53;;;;;;;;;;;18.60;54.80;;;;;;5087458;28;19953;-75
2022/08/14 05:03:20;;;;;;;;;;;18.60;54.80;;;;;;5087378;28;19915;-76
2022/08/14 05:05:50;;;;;;;;;;;18.60;54.70;;;;;;5087456;28;19912;-75
2022/08/14 05:08:16;;;;;;;;;;;18.50;54.70;;;;;;5089184;28;19908;-75
2022/08/14 05:10:43;;;;;;;;;;;18.50;54.70;;;;;;5070587;28;19912;-75
2022/08/14 05:13:09;;;;;;;;;;;18.50;54.70;;;;;;5087307;28;19912;-75
2022/08/14 05:15:35;;;;;;;;;;;18.50;54.60;;;;;;5088632;28;19918;-75
2022/08/14 05:18:11;;;;;;;;;;;18.50;54.70;;;;;;5088545;28;19915;-75
2022/08/14 05:20:41;;;;;;;;;;;18.50;54.70;;;;;;5088552;28;20287;-75
2022/08/14 05:23:06;;;;;;;;;;;18.40;55.20;;;;;;5088547;28;19918;-75
2022/08/14 05:25:33;;;;;;;;;;;18.40;54.80;;;;;;5088524;28;19913;-75
2022/08/14 05:28:05;;;;;;;;;;;18.40;54.80;;;;;;5087190;28;19912;-75
2022/08/14 05:30:31;;;;;;;;;;;18.50;54.80;;;;;;5088302;28;19912;-75
2022/08/14 05:32:56;;;;;;;;;;;18.50;54.80;;;;;;5087224;28;20102;-75
2022/08/14 05:35:22;;;;;;;;;;;18.60;54.80;;;;;;5087064;28;19920;-75
2022/08/14 05:37:48;;;;;;;;;;;18.60;54.80;;;;;;5087366;28;20267;-75
2022/08/14 05:40:14;;;;;;;;;;;18.50;54.80;;;;;;5087959;28;19945;-75
2022/08/14 05:42:40;;;;;;;;;;;18.50;55.00;;;;;;5087268;28;19908;-75
2022/08/14 05:45:05;;;;;;;;;;;18.60;55.10;;;;;;5088079;28;19912;-75
2022/08/14 05:47:31;;;;;;;;;;;18.60;55.10;;;;;;5086779;28;19955;-76
2022/08/14 05:49:57;;;;;;;;;;;18.70;55.10;;;;;;5088170;28;19908;-76
2022/08/14 05:52:23;;;;;;;;;;;18.70;55.10;;;;;;5088517;28;20363;-76
2022/08/14 05:54:48;;;;;;;;;;;18.80;55.10;;;;;;5088157;28;19963;-76
2022/08/14 05:57:14;;;;;;;;;;;19.00;55.10;;;;;;5087992;28;19919;-76
2022/08/14 05:59:40;;;;;;;;;;;19.00;54.90;;;;;;5087960;28;19916;-76
2022/08/14 06:02:07;;;;;;;;;;;19.10;55.00;;;;;;5088232;28;20299;-76
2022/08/14 06:04:32;;;;;;;;;;;19.10;55.00;;;;;;5087982;28;19912;-75
2022/08/14 06:06:58;;;;;;;;;;;19.20;55.00;;;;;;5086696;28;19923;-75
2022/08/14 06:09:24;;;;;;;;;;;19.20;55.00;;;;;;5087764;28;20002;-76
2022/08/14 06:11:49;;;;;;;;;;;19.30;55.10;;;;;;5087688;28;20371;-76
2022/08/14 06:14:15;;;;;;;;;;;19.40;55.00;;;;;;5086407;28;19934;-75
2022/08/14 06:16:43;;;;;;;;;;;19.50;54.90;;;;;;5087845;28;20001;-75
2022/08/14 06:19:09;;;;;;;;;;;19.60;54.90;;;;;;5087681;28;19982;-75
2022/08/14 06:21:35;;;;;;;;;;;19.70;55.00;;;;;;5087855;28;20203;-75
2022/08/14 06:24:00;;;;;;;;;;;19.80;55.00;;;;;;5086167;28;19923;-75
2022/08/14 06:26:26;;;;;;;;;;;19.90;54.80;;;;;;5087607;28;19925;-76
2022/08/14 06:28:51;;;;;;;;;;;20.20;54.90;;;;;;5086340;28;19916;-76
2022/08/14 06:31:17;;;;;;;;;;;20.50;54.90;;;;;;5087589;28;19912;-76
2022/08/14 06:33:43;;;;;;;;;;;20.90;54.50;;;;;;5087647;28;19912;-75
2022/08/14 06:36:08;;;;;;;;;;;21.10;54.40;;;;;;5069352;28;19912;-76
2022/08/14 06:38:34;;;;;;;;;;;21.20;54.30;;;;;;5086179;28;19923;-76
2022/08/14 06:40:59;;;;;;;;;;;21.40;54.30;;;;;;5087381;28;19924;-75
2022/08/14 06:43:25;;;;;;;;;;;21.50;54.30;;;;;;5087329;28;19913;-75
2022/08/14 06:45:51;;;;;;;;;;;21.50;54.50;;;;;;5085931;28;19916;-76
2022/08/14 06:48:16;;;;;;;;;;;21.50;54.50;;;;;;5087248;28;19912;-75
2022/08/14 06:50:42;;;;;;;;;;;21.60;54.40;;;;;;5087159;28;19920;-76
2022/08/14 06:53:08;;;;;;;;;;;21.80;54.40;;;;;;5085784;28;19916;-76
2022/08/14 06:55:34;;;;;;;;;;;21.90;54.40;;;;;;5090960;28;19919;-76
2022/08/14 06:58:00;;;;;;;;;;;22.00;54.30;;;;;;5072996;28;20015;-76
2022/08/14 07:00:27;;;;;;;;;;;22.20;54.30;;;;;;5089635;28;20012;-76
2022/08/14 07:05:47;;;;;;;;;;;22.50;54.30;;;;;;5091416;28;20016;-76
2022/08/14 07:08:16;;;;;;;;;;;22.80;54.30;;;;;;5089652;28;19919;-76
2022/08/14 07:10:43;;;;;;;;;;;22.90;54.10;;;;;;5091373;28;20408;-76
2022/08/14 07:13:09;;;;;;;;;;;23.00;54.00;;;;;;5091113;28;19912;-76
2022/08/14 07:15:35;;;;;;;;;;;23.10;53.90;;;;;;5090890;28;19913;-76
2022/08/14 07:18:02;;;;;;;;;;;23.10;53.80;;;;;;5090997;28;19912;-75
2022/08/14 07:20:28;;;;;;;;;;;23.30;54.00;;;;;;5090528;28;19916;-76
2022/08/14 07:22:59;;;;;;;;;;;23.90;54.10;;;;;;5090566;28;19924;-76
2022/08/14 07:25:25;;;;;;;;;;;24.60;54.00;;;;;;5090783;28;19919;-76
2022/08/14 07:27:51;;;;;;;;;;;25.30;53.50;;;;;;5089406;28;19916;-76
2022/08/14 07:30:16;;;;;;;;;;;25.60;53.20;;;;;;5090315;28;20394;-76
2022/08/14 07:32:42;;;;;;;;;;;25.80;53.20;;;;;;5090469;28;19927;-76
2022/08/14 07:35:08;;;;;;;;;;;25.70;53.20;;;;;;5090228;28;19915;-76
2022/08/14 07:37:33;;;;;;;;;;;25.70;53.70;;;;;;5090503;28;20355;-76
2022/08/14 07:40:00;;;;;;;;;;;25.90;53.70;;;;;;5089868;28;20379;-76
2022/08/14 07:42:25;;;;;;;;;;;26.00;53.70;;;;;;5090320;28;19912;-76
2022/08/14 07:44:51;;;;;;;;;;;26.40;54.20;;;;;;5090872;28;19999;-76
2022/08/14 07:47:17;;;;;;;;;;;26.90;54.30;;;;;;5090118;28;19955;-76
2022/08/14 07:49:50;;;;;;;;;;;27.50;54.20;;;;;;5089895;28;20279;-76
2022/08/14 07:52:15;;;;;;;;;;;28.10;53.90;;;;;;5090054;28;19919;-76
2022/08/14 07:54:41;;;;;;;;;;;28.60;53.70;;;;;;5089934;28;19912;-76
2022/08/14 07:57:07;;;;;;;;;;;28.80;54.10;;;;;;5089764;28;19912;-76
2022/08/14 07:59:32;;;;;;;;;;;29.00;53.90;;;;;;5089406;28;19912;-76
2022/08/14 08:01:58;;;;;;;;;;;29.30;53.90;;;;;;5089596;28;19953;-76
2022/08/14 08:04:25;;;;;;;;;;;29.60;53.70;;;;;;5089862;28;19912;-76
2022/08/14 08:06:51;;;;;;;;;;;29.90;54.00;;;;;;5088996;28;19912;-76
2022/08/14 08:09:18;;;;;;;;;;;30.20;54.10;;;;;;5089485;28;20241;-76
2022/08/14 08:11:44;;;;;;;;;;;30.60;54.30;;;;;;5089414;28;19926;-76
2022/08/14 08:14:10;;;;;;;;;;;31.00;54.40;;;;;;5089535;28;19927;-76
2022/08/14 08:16:37;;;;;;;;;;;31.70;54.40;;;;;;5089542;28;20033;-76
2022/08/14 08:19:03;;;;;;;;;;;32.10;54.30;;;;;;5089512;28;19923;-76
2022/08/14 08:21:28;;;;;;;;;;;32.40;54.60;;;;;;5089270;28;20372;-76
2022/08/14 08:23:54;;;;;;;;;;;32.40;54.20;;;;;;5089624;28;20012;-76
2022/08/14 08:26:19;;;;;;;;;;;32.60;54.40;;;;;;5089631;28;19957;-76
2022/08/14 08:28:54;;;;;;;;;;;32.70;54.50;;;;;;5087823;28;20014;-76
2022/08/14 08:31:20;;;;;;;;;;;32.70;54.50;;;;;;5089103;28;19918;-76
2022/08/14 08:33:49;;;;;;;;;;;32.50;54.70;;;;;;5089662;28;19915;-76
2022/08/14 08:36:15;;;;;;;;;;;32.50;55.10;;;;;;5089125;28;19943;-77
2022/08/14 08:38:41;;;;;;;;;;;32.90;55.30;;;;;;5088987;28;19956;-77
2022/08/14 08:41:07;;;;;;;;;;;33.40;55.00;;;;;;5087267;28;19971;-77
2022/08/14 08:43:33;;;;;;;;;;;33.80;54.90;;;;;;5088816;28;19913;-77
2022/08/14 08:46:03;;;;;;;;;;;34.30;55.40;;;;;;5088251;28;19912;-77
2022/08/14 08:48:30;;;;;;;;;;;34.40;54.60;;;;;;5088686;28;19912;-76
2022/08/14 08:50:57;;;;;;;;;;;34.00;54.20;;;;;;5087230;28;19908;-76
2022/08/14 08:53:28;;;;;;;;;;;33.40;54.10;;;;;;5088468;28;19923;-77
2022/08/14 08:55:54;;;;;;;;;;;33.10;54.80;;;;;;5088788;28;19908;-76
2022/08/14 08:58:20;;;;;;;;;;;33.50;55.10;;;;;;5088249;28;19916;-77
2022/08/14 09:00:50;;;;;;;;;;;34.00;55.40;;;;;;5088313;28;19908;-78
2022/08/14 09:03:19;;;;;;;;;;;34.40;55.30;;;;;;5088480;28;19915;-76
2022/08/14 09:05:49;;;;;;;;;;;35.10;55.30;;;;;;5088483;28;19908;-76
2022/08/14 09:08:17;;;;;;;;;;;35.30;54.90;;;;;;5088273;28;19912;-76
2022/08/14 09:10:43;;;;;;;;;;;35.10;54.70;;;;;;5087957;28;19912;-76
2022/08/14 09:13:11;;;;;;;;;;;34.40;54.50;;;;;;5087624;28;19917;-76
2022/08/14 09:15:38;;;;;;;;;;;33.70;54.70;;;;;;5086596;28;19908;-76
2022/08/14 09:18:04;;;;;;;;;;;33.20;55.10;;;;;;5088329;28;19935;-76
2022/08/14 09:20:30;;;;;;;;;;;33.10;55.40;;;;;;5086979;28;20015;-77
2022/08/14 09:22:57;;;;;;;;;;;33.10;55.40;;;;;;5088009;28;19912;-76
2022/08/14 09:25:22;;;;;;;;;;;33.20;55.50;;;;;;5088038;28;19957;-76
2022/08/14 09:27:48;;;;;;;;;;;33.10;55.30;;;;;;5087884;28;20257;-76
2022/08/14 09:30:13;;;;;;;;;;;33.10;55.40;;;;;;5087637;28;19916;-76
2022/08/14 09:32:57;;;;;;;;;;;33.00;55.10;;;;;;5086348;28;20290;-76
2022/08/14 09:35:27;;;;;;;;;;;32.60;55.00;;;;;;5087710;28;20011;-76
2022/08/14 09:38:11;;;;;;;;;;;32.60;55.60;;;;;;5087838;28;20367;-76
2022/08/14 09:40:43;;;;;;;;;;;33.20;56.00;;;;;;5085689;28;19973;-76
2022/08/14 09:43:12;;;;;;;;;;;34.10;56.00;;;;;;5087260;28;20274;-76
2022/08/14 09:45:47;;;;;;;;;;;35.00;56.00;;;;;;5087702;28;19908;-76
2022/08/14 09:48:17;;;;;;;;;;;35.90;55.90;;;;;;5087414;28;19908;-77
2022/08/14 09:50:45;;;;;;;;;;;36.50;55.60;;;;;;5087396;28;20407;-76
2022/08/14 09:53:11;;;;;;;;;;;37.00;55.40;;;;;;5087414;28;19916;-77
2022/08/14 09:55:37;;;;;;;;;;;37.20;55.40;;;;;;5087257;28;19974;-77
2022/08/14 09:58:06;;;;;;;;;;;37.50;55.60;;;;;;5087092;28;20084;-76
2022/08/14 10:00:40;;;;;;;;;;;37.90;55.60;;;;;;5087124;28;19931;-77
2022/08/14 10:03:05;;;;;;;;;;;37.90;55.90;;;;;;5087502;28;19912;-76
2022/08/14 10:05:35;;;;;;;;;;;38.40;56.30;;;;;;5087512;28;19935;-77
2022/08/14 10:08:01;;;;;;;;;;;38.90;56.30;;;;;;5087416;28;19951;-76
2022/08/14 10:10:27;;;;;;;;;;;39.20;56.30;;;;;;5085738;28;19908;-76
2022/08/14 10:12:54;;;;;;;;;;;39.30;55.80;;;;;;5085386;28;19920;-77
2022/08/14 10:15:21;;;;;;;;;;;39.00;55.70;;;;;;5087206;28;19991;-76
2022/08/14 10:17:47;;;;;;;;;;;38.60;56.00;;;;;;5087186;28;19914;-77
2022/08/14 10:20:14;;;;;;;;;;;38.40;56.80;;;;;;5087070;28;20279;-77
2022/08/14 10:22:41;;;;;;;;;;;38.40;56.50;;;;;;5087169;28;19995;-76
2022/08/14 10:25:13;;;;;;;;;;;38.60;56.60;;;;;;5087425;28;20372;-77
2022/08/14 10:27:39;;;;;;;;;;;38.50;56.40;;;;;;5086085;28;19998;-76
2022/08/14 10:30:15;;;;;;;;;;;38.20;56.20;;;;;;5090503;28;19984;-77
2022/08/14 10:32:45;;;;;;;;;;;37.70;55.90;;;;;;5091200;28;19912;-77
2022/08/14 10:35:11;;;;;;;;;;;37.00;55.90;;;;;;5091026;28;19912;-78
2022/08/14 10:37:37;;;;;;;;;;;36.70;56.50;;;;;;5091142;28;19916;-77
2022/08/14 10:40:03;;;;;;;;;;;36.90;56.90;;;;;;5091562;28;19920;-77
2022/08/14 10:42:40;;;;;;;;;;;37.00;57.00;;;;;;5091184;28;19976;-76
2022/08/14 10:45:19;;;;;;;;;;;37.00;56.90;;;;;;5091014;28;19908;-76
2022/08/14 10:47:45;;;;;;;;;;;37.10;56.70;;;;;;5091009;28;19908;-77
2022/08/14 10:50:12;;;;;;;;;;;37.50;57.00;;;;;;5090919;28;20356;-77
2022/08/14 10:52:38;;;;;;;;;;;38.20;57.10;;;;;;5090845;28;19923;-77
2022/08/14 10:55:08;;;;;;;;;;;38.80;56.90;;;;;;5090566;28;19943;-76
2022/08/14 10:57:34;;;;;;;;;;;39.00;56.90;;;;;;5090719;28;19966;-76
2022/08/14 11:00:12;;;;;;;;;;;39.10;56.70;;;;;;5089370;28;19912;-76
2022/08/14 11:02:39;;;;;;;;;;;38.80;56.50;;;;;;5090507;28;19919;-76
2022/08/14 11:05:05;;;;;;;;;;;38.70;57.00;;;;;;5090645;28;19946;-77
2022/08/14 11:07:31;;;;;;;;;;;38.90;57.10;;;;;;5090735;28;20000;-77
2022/08/14 11:10:01;;;;;;;;;;;39.30;57.20;;;;;;5090432;28;19908;-77
2022/08/14 11:12:37;;;;;;;;;;;39.90;57.00;;;;;;5088605;28;19916;-77
2022/08/14 11:15:03;;;;;;;;;;;40.30;56.60;;;;;;5089826;28;19908;-77
2022/08/14 11:17:33;;;;;;;;;;;40.30;56.30;;;;;;5089986;28;19943;-76
2022/08/14 11:19:59;;;;;;;;;;;40.40;56.40;;;;;;5089607;28;19919;-77
2022/08/14 11:22:29;;;;;;;;;;;40.80;56.40;;;;;;5090163;28;19915;-77
2022/08/14 11:24:59;;;;;;;;;;;41.10;56.20;;;;;;5090193;28;19912;-77
2022/08/14 11:27:26;;;;;;;;;;;41.30;56.10;;;;;;5090188;28;19915;-77
2022/08/14 11:29:52;;;;;;;;;;;41.50;55.90;;;;;;5090069;28;20360;-76
2022/08/14 11:32:20;;;;;;;;;;;41.20;56.30;;;;;;5089877;28;19924;-77
2022/08/14 11:34:46;;;;;;;;;;;41.00;56.80;;;;;;5071992;28;19922;-77
2022/08/14 11:37:12;;;;;;;;;;;41.10;57.00;;;;;;5088624;28;20006;-77
2022/08/14 11:39:37;;;;;;;;;;;41.30;57.10;;;;;;5089069;28;19919;-77
2022/08/14 11:42:04;;;;;;;;;;;41.80;56.90;;;;;;5087700;28;19916;-76
2022/08/14 11:44:29;;;;;;;;;;;41.90;56.70;;;;;;5089606;28;19919;-76
2022/08/14 11:46:55;;;;;;;;;;;41.70;56.60;;;;;;5089563;28;20360;-77
2022/08/14 11:49:27;;;;;;;;;;;41.10;56.60;;;;;;5087806;28;19962;-76
2022/08/14 11:51:53;;;;;;;;;;;40.80;57.10;;;;;;5089480;28;19981;-77
2022/08/14 11:54:19;;;;;;;;;;;40.90;57.30;;;;;;5089175;28;19987;-76
2022/08/14 11:56:48;;;;;;;;;;;41.10;57.30;;;;;;5088613;28;19908;-76
2022/08/14 11:59:16;;;;;;;;;;;41.10;56.90;;;;;;5089306;28;19960;-76
2022/08/14 12:01:41;;;;;;;;;;;40.90;56.90;;;;;;5089272;28;20304;-77
2022/08/14 12:04:09;;;;;;;;;;;40.60;57.00;;;;;;5090532;28;19923;-77
2022/08/14 12:06:43;;;;;;;;;;;40.60;57.20;;;;;;5089498;28;19912;-76
2022/08/14 12:09:09;;;;;;;;;;;40.80;57.40;;;;;;5088572;28;20553;-77
2022/08/14 12:11:39;;;;;;;;;;;40.80;57.00;;;;;;5070853;28;20194;-77
2022/08/14 12:14:08;;;;;;;;;;;40.70;57.10;;;;;;5088884;28;19916;-76
2022/08/14 12:16:34;;;;;;;;;;;40.80;57.20;;;;;;5070565;28;20254;-77
2022/08/14 12:19:00;;;;;;;;;;;41.10;57.00;;;;;;5089027;28;19919;-77
2022/08/14 12:21:26;;;;;;;;;;;41.50;56.80;;;;;;5088690;28;19912;-76
2022/08/14 12:24:05;;;;;;;;;;;41.40;56.60;;;;;;5088639;28;19939;-76
2022/08/14 12:26:31;;;;;;;;;;;41.20;56.60;;;;;;5088435;28;19912;-77
2022/08/14 12:29:10;;;;;;;;;;;41.00;56.40;;;;;;5088579;28;20261;-77
2022/08/14 12:31:36;;;;;;;;;;;40.50;56.70;;;;;;5088494;28;19914;-77
2022/08/14 12:34:03;;;;;;;;;;;40.30;57.20;;;;;;5088876;28;19916;-77
2022/08/14 12:36:29;;;;;;;;;;;40.40;57.20;;;;;;5089096;28;19919;-77
2022/08/14 12:38:55;;;;;;;;;;;40.40;57.30;;;;;;5088840;28;19908;-77
2022/08/14 12:41:22;;;;;;;;;;;40.40;57.00;;;;;;5088314;28;19924;-74
2022/08/14 12:43:50;;;;;;;;;;;40.00;57.10;;;;;;5088395;28;19912;-76
2022/08/14 12:46:36;;;;;;;;;;;39.70;57.10;;;;;;5087171;28;19915;-77
2022/08/14 12:49:23;;;;;;;;;;;39.30;56.90;;;;;;5087313;28;19973;-77
2022/08/14 12:51:56;;;;;;;;;;;38.70;57.10;;;;;;5087845;28;19934;-76
2022/08/14 12:54:22;;;;;;;;;;;38.40;57.00;;;;;;5088347;28;20361;-77
2022/08/14 12:56:48;;;;;;;;;;;37.90;56.90;;;;;;5088508;28;19907;-76
2022/08/14 12:59:14;;;;;;;;;;;37.60;56.80;;;;;;5088401;28;19916;-76
2022/08/14 13:01:41;;;;;;;;;;;37.30;56.90;;;;;;5088321;28;19951;-76
2022/08/14 13:04:16;;;;;;;;;;;37.20;56.80;;;;;;5088036;28;20021;-70
2022/08/14 13:06:43;;;;;;;;;;;37.10;56.70;;;;;;5087685;28;20015;-76
2022/08/14 13:09:10;;;;;;;;;;;36.90;56.70;;;;;;5088041;28;19916;-77
2022/08/14 13:11:39;;;;;;;;;;;36.80;56.50;;;;;;5087740;28;19919;-77
2022/08/14 13:14:05;;;;;;;;;;;36.80;56.30;;;;;;5088119;28;19915;-76
2022/08/14 13:16:31;;;;;;;;;;;36.80;56.20;;;;;;5087902;28;19916;-76
2022/08/14 13:19:00;;;;;;;;;;;36.90;56.40;;;;;;5087801;28;20027;-76
2022/08/14 13:21:27;;;;;;;;;;;37.30;56.50;;;;;;5086209;28;19983;-76
2022/08/14 13:23:56;;;;;;;;;;;37.60;56.40;;;;;;5086509;28;19914;-77
2022/08/14 13:26:25;;;;;;;;;;;38.00;56.70;;;;;;5086850;28;19912;-76
2022/08/14 13:28:52;;;;;;;;;;;38.20;56.60;;;;;;5087407;28;19912;-77
2022/08/14 13:31:21;;;;;;;;;;;38.60;56.80;;;;;;5087583;28;19908;-77
2022/08/14 13:33:47;;;;;;;;;;;38.70;56.50;;;;;;5087128;28;19923;-76
2022/08/14 13:36:12;;;;;;;;;;;38.40;56.60;;;;;;5087440;28;19909;-77
2022/08/14 13:38:41;;;;;;;;;;;38.10;56.40;;;;;;5087325;28;19991;-77
2022/08/14 13:41:07;;;;;;;;;;;37.70;56.60;;;;;;5085857;28;19978;-76
2022/08/14 13:43:35;;;;;;;;;;;37.40;56.50;;;;;;5085827;28;19991;-77
2022/08/14 13:46:01;;;;;;;;;;;37.00;56.70;;;;;;5087419;28;19915;-76
2022/08/14 13:48:27;;;;;;;;;;;36.70;56.70;;;;;;5087197;28;19912;-77
2022/08/14 13:50:55;;;;;;;;;;;36.30;56.40;;;;;;5086776;28;20413;-77
2022/08/14 13:53:22;;;;;;;;;;;35.90;56.60;;;;;;5086003;28;19912;-76
2022/08/14 13:55:49;;;;;;;;;;;35.70;56.40;;;;;;5087241;28;19924;-76
2022/08/14 13:58:15;;;;;;;;;;;35.40;56.40;;;;;;5087079;28;19920;-77
2022/08/14 14:00:42;;;;;;;;;;;35.30;56.60;;;;;;5086648;28;19922;-76
2022/08/14 14:03:09;;;;;;;;;;;35.20;56.30;;;;;;5086218;28;19908;-77
2022/08/14 14:05:36;;;;;;;;;;;35.10;56.30;;;;;;5087356;28;19916;-76
2022/08/14 14:08:03;;;;;;;;;;;35.00;56.30;;;;;;5086691;28;19908;-76
2022/08/14 14:10:31;;;;;;;;;;;34.90;56.30;;;;;;5086981;28;19943;-76
2022/08/14 14:12:57;;;;;;;;;;;34.90;56.20;;;;;;5087221;28;20403;-77
2022/08/14 14:15:22;;;;;;;;;;;34.80;56.10;;;;;;5086895;28;20014;-77
2022/08/14 14:17:48;;;;;;;;;;;34.80;56.00;;;;;;5085202;28;19999;-77
2022/08/14 14:20:15;;;;;;;;;;;34.70;55.80;;;;;;5085717;28;20035;-77
2022/08/14 14:22:45;;;;;;;;;;;34.50;55.70;;;;;;5085584;28;19918;-77
2022/08/14 14:25:13;;;;;;;;;;;34.20;55.60;;;;;;5086834;28;20015;-76
2022/08/14 14:27:46;;;;;;;;;;;33.90;55.50;;;;;;5086435;28;19912;-76